Time;durP1;ratioP1;P1;durP2;ratioP2;P2;SDS_P1;SDS_P2;PMS_P1;PMS_P2;Temp;Humidity;BMP_temperature;BMP_pressure;BME280_temperature;BME280_humidity;BME280_pressure;Samples;Min_cycle;Max_cycle;Signal;HPM_P1;HPM_P2
2022/08/29 00:01:45;0.00;0.00;0.62;0.00;0.00;0.62;4.93;2.93;;;26.30;26.90;;;;;;2238283;62;20363;-64
2022/08/29 00:04:30;0.00;0.00;0.62;0.00;0.00;0.62;5.63;4.10;;;26.30;27.50;;;;;;2234277;62;20403;-64
2022/08/29 00:07:15;0.00;0.00;0.62;0.00;0.00;0.62;6.23;3.20;;;26.30;26.90;;;;;;2234460;62;20403;-63
2022/08/29 00:09:59;0.00;0.00;0.62;0.00;0.00;0.62;7.53;3.67;;;26.30;26.90;;;;;;2233359;62;20623;-64
2022/08/29 00:12:46;0.00;0.00;0.62;0.00;0.00;0.62;3.70;2.90;;;26.30;26.80;;;;;;2235241;62;20367;-63
2022/08/29 00:15:31;0.00;0.00;0.62;0.00;0.00;0.62;4.90;3.47;;;26.30;26.80;;;;;;2238227;62;20372;-64
2022/08/29 00:18:18;0.00;0.00;0.62;0.00;0.00;0.62;5.67;3.47;;;26.20;26.80;;;;;;2237295;62;20509;-64
2022/08/29 00:21:04;0.00;0.00;0.62;0.00;0.00;0.62;11.13;4.30;;;26.20;26.90;;;;;;2238184;62;20766;-64
2022/08/29 00:23:49;0.00;0.00;0.62;0.00;0.00;0.62;6.67;3.40;;;26.20;26.80;;;;;;2238107;62;20659;-64
2022/08/29 00:26:34;0.00;0.00;0.62;0.00;0.00;0.62;6.33;3.20;;;26.20;26.90;;;;;;2237660;62;20463;-64
2022/08/29 00:29:20;0.00;0.00;0.62;0.00;0.00;0.62;5.97;3.80;;;26.10;26.80;;;;;;2237847;62;20408;-64
2022/08/29 00:32:05;0.00;0.00;0.62;0.00;0.00;0.62;5.90;3.67;;;26.10;26.80;;;;;;2237460;62;20371;-64
2022/08/29 00:34:50;0.00;0.00;0.62;0.00;0.00;0.62;5.33;3.60;;;26.00;26.80;;;;;;2469144;54;20394;-64
2022/08/29 00:37:35;0.00;0.00;0.62;0.00;0.00;0.62;5.03;3.37;;;26.00;27.40;;;;;;2238111;62;20415;-64
2022/08/29 00:40:25;0.00;0.00;0.62;0.00;0.00;0.62;4.90;3.23;;;26.00;26.90;;;;;;2237337;62;20351;-63
2022/08/29 00:43:11;0.00;0.00;0.62;0.00;0.00;0.62;8.80;4.33;;;26.00;26.90;;;;;;2236577;62;20410;-64
2022/08/29 00:46:11;0.00;0.00;0.62;0.00;0.00;0.62;6.30;3.40;;;25.90;26.90;;;;;;2234188;62;20412;-64
2022/08/29 00:49:05;0.00;0.00;0.62;0.00;0.00;0.62;4.50;2.90;;;25.90;27.00;;;;;;2233760;62;20376;-64
2022/08/29 00:51:52;0.00;0.00;0.62;0.00;0.00;0.62;6.20;3.90;;;25.80;27.00;;;;;;2234316;62;20760;-64
2022/08/29 00:54:39;0.00;0.00;0.62;0.00;0.00;0.62;6.97;3.87;;;25.80;27.10;;;;;;2233165;62;20427;-65
2022/08/29 00:57:27;0.00;0.00;0.62;0.00;0.00;0.62;5.40;3.30;;;25.80;27.10;;;;;;2234379;62;20631;-64
2022/08/29 01:00:16;0.00;0.00;0.62;0.00;0.00;0.62;5.47;3.80;;;25.80;27.20;;;;;;2234225;62;20373;-64
2022/08/29 01:03:03;0.00;0.00;0.62;0.00;0.00;0.62;4.40;2.60;;;25.80;27.20;;;;;;2233221;62;20780;-64
2022/08/29 01:05:48;0.00;0.00;0.62;0.00;0.00;0.62;5.20;3.23;;;25.80;27.30;;;;;;2234295;62;20372;-64
2022/08/29 01:08:33;0.00;0.00;0.62;0.00;0.00;0.62;5.50;3.53;;;25.80;27.30;;;;;;2234194;62;20814;-63
2022/08/29 01:14:25;0.00;0.00;0.62;0.00;0.00;0.62;7.30;3.03;;;25.80;27.40;;;;;;2234004;62;20444;-63
2022/08/29 01:17:10;0.00;0.00;0.62;0.00;0.00;0.62;4.80;3.10;;;25.70;27.40;;;;;;2233129;62;20622;-63
2022/08/29 01:19:59;0.00;0.00;0.62;0.00;0.00;0.62;4.60;3.30;;;25.70;27.40;;;;;;2234107;62;20590;-63
2022/08/29 01:22:59;0.00;0.00;0.62;0.00;0.00;0.62;4.90;3.57;;;25.70;27.40;;;;;;2234427;62;20375;-63
2022/08/29 01:25:48;0.00;0.00;0.62;0.00;0.00;0.62;4.83;2.87;;;25.70;27.40;;;;;;2237225;62;20360;-63
2022/08/29 01:28:37;0.00;0.00;0.62;0.00;0.00;0.62;5.63;2.73;;;25.70;27.40;;;;;;2238095;62;20620;-63
2022/08/29 01:31:25;0.00;0.00;0.62;0.00;0.00;0.62;7.80;3.87;;;25.70;27.50;;;;;;2237042;62;20356;-64
2022/08/29 01:34:12;0.00;0.00;0.62;0.00;0.00;0.62;6.00;2.83;;;25.60;27.50;;;;;;2237827;62;20447;-64
2022/08/29 01:37:00;0.00;0.00;0.62;0.00;0.00;0.62;5.13;2.73;;;25.70;27.50;;;;;;2238039;62;20416;-61
2022/08/29 01:39:45;0.00;0.00;0.62;0.00;0.00;0.62;3.73;2.87;;;25.70;27.50;;;;;;2237381;62;20375;-61
2022/08/29 01:42:31;0.00;0.00;0.62;0.00;0.00;0.62;5.33;3.27;;;25.70;27.60;;;;;;2237634;62;20384;-62
2022/08/29 01:45:16;0.00;0.00;0.62;0.00;0.00;0.62;3.80;2.77;;;25.70;27.60;;;;;;2234147;62;20407;-63
2022/08/29 01:48:00;0.00;0.00;0.62;0.00;0.00;0.62;4.37;2.53;;;25.70;27.50;;;;;;2236669;62;20475;-62
2022/08/29 01:50:46;0.00;0.00;0.62;0.00;0.00;0.62;6.27;3.50;;;25.70;27.50;;;;;;2238153;62;20416;-64
2022/08/29 01:53:32;0.00;0.00;0.62;0.00;0.00;0.62;5.50;3.30;;;25.60;27.50;;;;;;2237211;62;20682;-64
2022/08/29 01:56:21;0.00;0.00;0.62;0.00;0.00;0.62;5.60;3.47;;;25.60;27.50;;;;;;2238062;62;20399;-64
2022/08/29 01:59:12;0.00;0.00;0.62;0.00;0.00;0.62;5.73;3.60;;;25.50;27.50;;;;;;2238162;62;20367;-63
2022/08/29 02:02:03;0.00;0.00;0.62;0.00;0.00;0.62;5.50;3.70;;;25.50;27.50;;;;;;2237153;62;20367;-64
2022/08/29 02:04:48;0.00;0.00;0.62;0.00;0.00;0.62;6.27;3.73;;;25.50;27.60;;;;;;2464419;54;20626;-64
2022/08/29 02:07:33;0.00;0.00;0.62;0.00;0.00;0.62;6.63;2.57;;;25.50;27.50;;;;;;2234155;62;20429;-65
2022/08/29 02:10:18;0.00;0.00;0.62;0.00;0.00;0.62;5.63;3.80;;;25.40;27.50;;;;;;2233760;62;20392;-63
2022/08/29 02:13:03;0.00;0.00;0.62;0.00;0.00;0.62;5.23;3.20;;;25.40;27.50;;;;;;2236697;62;20366;-65
2022/08/29 02:15:49;0.00;0.00;0.62;0.00;0.00;0.62;3.80;2.80;;;25.30;27.50;;;;;;2241088;62;20627;-63
2022/08/29 02:18:34;0.00;0.00;0.62;0.00;0.00;0.62;6.13;3.60;;;25.30;27.60;;;;;;2241989;62;20358;-65
2022/08/29 02:21:23;0.00;0.00;0.62;0.00;0.00;0.62;8.17;3.50;;;25.20;27.70;;;;;;2242086;62;20411;-62
2022/08/29 02:24:08;0.00;0.00;0.62;0.00;0.00;0.62;4.80;3.30;;;25.20;27.70;;;;;;2240764;62;20414;-62
2022/08/29 02:26:55;0.00;0.00;0.62;0.00;0.00;0.62;7.03;3.47;;;25.10;27.70;;;;;;2242015;62;20386;-64
2022/08/29 02:29:40;0.00;0.00;0.62;0.00;0.00;0.62;7.03;3.03;;;25.10;27.70;;;;;;2242032;62;20366;-63
2022/08/29 02:32:26;0.00;0.00;0.62;0.00;0.00;0.62;5.40;3.30;;;25.00;27.70;;;;;;2241092;62;20350;-63
2022/08/29 02:35:11;0.00;0.00;0.62;0.00;0.00;0.62;5.53;3.23;;;25.00;27.80;;;;;;2234053;62;20388;-62
2022/08/29 02:37:59;0.00;0.00;0.62;0.00;0.00;0.62;4.77;3.30;;;24.90;27.80;;;;;;2233025;62;20364;-63
2022/08/29 02:40:46;0.00;0.00;0.62;0.00;0.00;0.62;6.17;3.17;;;24.90;27.90;;;;;;2234179;62;20371;-65
2022/08/29 02:43:31;0.00;0.00;0.62;0.00;0.00;0.62;5.23;3.00;;;24.80;27.90;;;;;;2233804;62;20626;-63
2022/08/29 02:46:18;0.00;0.00;0.62;0.00;0.00;0.62;6.77;3.40;;;24.80;27.90;;;;;;2232968;62;20496;-62
2022/08/29 02:49:05;0.00;0.00;0.62;0.00;0.00;0.62;7.10;3.20;;;24.70;27.80;;;;;;2234042;62;20708;-63
2022/08/29 02:51:50;0.00;0.00;0.62;0.00;0.00;0.62;9.53;3.57;;;24.70;27.90;;;;;;2234060;62;20458;-62
2022/08/29 02:54:35;0.00;0.00;0.62;0.00;0.00;0.62;5.33;3.27;;;24.60;27.80;;;;;;2240712;62;20454;-62
2022/08/29 02:57:19;0.00;0.00;0.62;0.00;0.00;0.62;7.10;3.57;;;24.60;27.90;;;;;;2242034;62;20570;-62
2022/08/29 03:00:09;0.00;0.00;0.62;0.00;0.00;0.62;6.90;3.67;;;24.50;28.00;;;;;;2240933;62;20439;-62
2022/08/29 03:02:55;0.00;0.00;0.62;0.00;0.00;0.62;7.43;3.97;;;24.40;28.00;;;;;;2240290;62;20400;-61
2022/08/29 03:05:42;0.00;0.00;0.62;0.00;0.00;0.62;6.30;3.07;;;24.40;28.20;;;;;;2237890;62;20360;-63
2022/08/29 03:08:27;0.00;0.00;0.62;0.00;0.00;0.62;4.27;2.90;;;24.30;28.20;;;;;;2236955;62;20387;-63
2022/08/29 03:11:12;0.00;0.00;0.62;0.00;0.00;0.62;5.53;3.17;;;24.30;28.30;;;;;;2238030;62;20396;-62
2022/08/29 03:13:57;0.00;0.00;0.62;0.00;0.00;0.62;4.30;3.20;;;24.30;28.40;;;;;;2237523;62;20399;-62
2022/08/29 03:16:42;0.00;0.00;0.62;0.00;0.00;0.62;6.03;3.23;;;24.30;28.40;;;;;;2237113;62;20370;-63
2022/08/29 03:19:28;0.00;0.00;0.62;0.00;0.00;0.62;8.43;3.33;;;24.30;28.40;;;;;;2237868;62;20384;-62
2022/08/29 03:22:14;0.00;0.00;0.62;0.00;0.00;0.62;6.07;3.43;;;24.30;28.50;;;;;;2237164;62;20404;-65
2022/08/29 03:25:01;0.00;0.00;0.62;0.00;0.00;0.62;7.30;3.90;;;24.30;28.50;;;;;;2468727;54;20391;-62
2022/08/29 03:27:46;0.00;0.00;0.62;0.00;0.00;0.62;6.00;3.27;;;24.30;28.60;;;;;;2237744;62;20598;-61
2022/08/29 03:30:32;0.00;0.00;0.62;0.00;0.00;0.62;7.17;3.80;;;24.30;28.60;;;;;;2236761;62;20362;-63
2022/08/29 03:33:18;0.00;0.00;0.62;0.00;0.00;0.62;4.40;3.20;;;24.20;28.60;;;;;;2235921;62;20417;-64
2022/08/29 03:36:04;0.00;0.00;0.62;0.00;0.00;0.62;4.53;2.70;;;24.20;28.60;;;;;;2233761;62;20387;-63
2022/08/29 03:38:50;0.00;0.00;0.62;0.00;0.00;0.62;6.27;3.30;;;24.20;28.70;;;;;;2232906;62;20420;-62
2022/08/29 03:41:35;0.00;0.00;0.62;0.00;0.00;0.62;6.67;3.17;;;24.10;28.70;;;;;;2233774;62;20371;-62
2022/08/29 03:44:20;0.00;0.00;0.62;0.00;0.00;0.62;5.73;2.83;;;24.10;28.80;;;;;;2236496;62;20414;-64
2022/08/29 03:47:06;0.00;0.00;0.62;0.00;0.00;0.62;6.23;3.37;;;24.10;28.80;;;;;;2236074;62;20499;-61
2022/08/29 03:49:50;0.00;0.00;0.62;0.00;0.00;0.62;6.17;2.97;;;24.00;28.80;;;;;;2233805;62;20418;-64
2022/08/29 03:52:35;0.00;0.00;0.62;0.00;0.00;0.62;4.20;3.00;;;24.00;29.00;;;;;;2232815;62;20384;-63
2022/08/29 03:55:22;0.00;0.00;0.62;0.00;0.00;0.62;6.27;3.27;;;24.00;29.10;;;;;;2233904;62;20428;-63
2022/08/29 03:58:07;0.00;0.00;0.62;0.00;0.00;0.62;4.33;3.17;;;23.90;29.10;;;;;;2234489;62;20372;-64
2022/08/29 04:00:52;0.00;0.00;0.62;0.00;0.00;0.62;5.83;3.20;;;23.90;29.30;;;;;;2233661;62;20364;-64
2022/08/29 04:03:37;0.00;0.00;0.62;0.00;0.00;0.62;5.33;2.80;;;23.90;29.30;;;;;;2234262;62;20407;-63
2022/08/29 04:06:23;0.00;0.00;0.62;0.00;0.00;0.62;5.20;3.20;;;23.80;29.30;;;;;;2233843;62;20440;-63
2022/08/29 04:09:08;0.00;0.00;0.62;0.00;0.00;0.62;7.43;2.87;;;23.80;29.30;;;;;;2234370;62;20376;-62
2022/08/29 04:11:56;0.00;0.00;0.62;0.00;0.00;0.62;6.27;3.13;;;23.80;29.30;;;;;;2234523;62;20400;-64
2022/08/29 04:14:41;0.00;0.00;0.62;0.00;0.00;0.62;7.60;2.90;;;23.80;29.40;;;;;;2233295;62;20396;-61
2022/08/29 04:17:26;0.00;0.00;0.62;0.00;0.00;0.62;4.33;2.90;;;23.80;29.50;;;;;;2234368;62;20368;-63
2022/08/29 04:20:13;0.00;0.00;0.62;0.00;0.00;0.62;7.07;3.43;;;23.70;29.50;;;;;;2234595;62;20421;-61
2022/08/29 04:22:59;0.00;0.00;0.62;0.00;0.00;0.62;4.47;2.53;;;23.80;29.60;;;;;;2233297;62;20407;-62
2022/08/29 04:25:44;0.00;0.00;0.62;0.00;0.00;0.62;4.03;2.70;;;23.70;29.70;;;;;;2234390;62;20360;-62
2022/08/29 04:28:30;0.00;0.00;0.62;0.00;0.00;0.62;5.87;2.60;;;23.70;29.70;;;;;;2233828;62;20396;-64
2022/08/29 04:31:18;0.00;0.00;0.62;0.00;0.00;0.62;8.30;3.63;;;23.70;29.80;;;;;;2234167;62;20743;-63
2022/08/29 04:34:05;0.00;0.00;0.62;0.00;0.00;0.62;3.93;2.67;;;23.70;29.80;;;;;;2236913;62;20395;-63
2022/08/29 04:36:50;0.00;0.00;0.62;0.00;0.00;0.62;5.60;3.27;;;23.70;29.80;;;;;;2237161;62;20788;-63
2022/08/29 04:39:35;0.00;0.00;0.62;0.00;0.00;0.62;6.00;3.10;;;23.70;29.90;;;;;;2238229;62;20359;-62
2022/08/29 04:42:20;0.00;0.00;0.62;0.00;0.00;0.62;5.53;3.03;;;23.70;30.00;;;;;;2238292;62;20367;-63
2022/08/29 04:45:11;0.00;0.00;0.62;0.00;0.00;0.62;6.10;3.37;;;23.70;30.00;;;;;;2237192;62;20398;-62
2022/08/29 04:47:56;0.00;0.00;0.62;0.00;0.00;0.62;5.00;3.03;;;23.70;30.00;;;;;;2235141;62;20440;-63
2022/08/29 04:50:40;0.00;0.00;0.62;0.00;0.00;0.62;4.97;2.70;;;23.70;30.10;;;;;;2233316;62;20408;-63
2022/08/29 04:53:27;0.00;0.00;0.62;0.00;0.00;0.62;5.33;3.57;;;23.70;30.10;;;;;;2233903;62;20435;-62
2022/08/29 04:56:12;0.00;0.00;0.62;0.00;0.00;0.62;4.20;2.80;;;23.70;30.10;;;;;;2234375;62;20447;-63
2022/08/29 04:58:57;0.00;0.00;0.62;0.00;0.00;0.62;6.00;2.67;;;23.60;30.00;;;;;;2233261;62;20416;-63
2022/08/29 05:01:45;0.00;0.00;0.62;0.00;0.00;0.62;3.43;2.57;;;23.60;30.00;;;;;;2234318;62;20368;-64
2022/08/29 05:04:30;0.00;0.00;0.62;0.00;0.00;0.62;4.30;2.90;;;23.60;30.10;;;;;;2234245;62;20614;-63
2022/08/29 05:07:19;0.00;0.00;0.62;0.00;0.00;0.62;5.13;3.30;;;23.60;30.10;;;;;;2233283;62;20617;-64
2022/08/29 05:10:08;0.00;0.00;0.62;0.00;0.00;0.62;3.87;2.20;;;23.60;30.00;;;;;;2234450;62;20732;-63
2022/08/29 05:12:53;0.00;0.00;0.62;0.00;0.00;0.62;5.33;3.20;;;23.60;30.20;;;;;;2233519;62;20387;-64
2022/08/29 05:15:38;0.00;0.00;0.62;0.00;0.00;0.62;5.70;3.37;;;23.60;30.20;;;;;;2233526;62;20389;-63
2022/08/29 05:18:24;0.00;0.00;0.62;0.00;0.00;0.62;4.20;2.80;;;23.60;30.20;;;;;;2234246;62;20477;-64
2022/08/29 05:21:11;0.00;0.00;0.62;0.00;0.00;0.62;6.57;2.80;;;23.60;30.30;;;;;;2233248;62;20359;-64
2022/08/29 05:23:56;0.00;0.00;0.62;0.00;0.00;0.62;5.20;3.30;;;23.60;30.90;;;;;;2234137;62;20400;-63
2022/08/29 05:26:44;0.00;0.00;0.62;0.00;0.00;0.62;4.00;3.20;;;23.60;30.40;;;;;;2234176;62;20397;-63
2022/08/29 05:29:30;0.00;0.00;0.62;0.00;0.00;0.62;7.70;2.80;;;23.50;30.30;;;;;;2233181;62;20364;-64
2022/08/29 05:32:17;0.00;0.00;0.62;0.00;0.00;0.62;6.50;3.23;;;23.50;30.40;;;;;;2234313;62;20372;-64
2022/08/29 05:35:04;0.00;0.00;0.62;0.00;0.00;0.62;5.43;3.10;;;23.60;31.30;;;;;;2233708;62;20428;-64
2022/08/29 05:37:50;0.00;0.00;0.62;0.00;0.00;0.62;5.53;3.00;;;23.50;30.50;;;;;;2234018;62;20452;-64
2022/08/29 05:40:36;0.00;0.00;0.62;0.00;0.00;0.62;4.87;2.60;;;23.50;30.70;;;;;;2234201;62;20421;-64
2022/08/29 05:43:21;0.00;0.00;0.62;0.00;0.00;0.62;4.50;3.00;;;23.50;31.40;;;;;;2234795;62;20412;-63
2022/08/29 05:46:08;0.00;0.00;0.62;0.00;0.00;0.62;7.17;3.40;;;23.50;30.90;;;;;;2238093;62;20371;-62
2022/08/29 05:48:53;0.00;0.00;0.62;0.00;0.00;0.62;4.60;2.70;;;23.50;31.00;;;;;;2238026;62;20384;-64
2022/08/29 05:51:41;0.00;0.00;0.62;0.00;0.00;0.62;4.93;3.23;;;23.50;31.00;;;;;;2237169;62;20368;-63
2022/08/29 05:54:26;0.00;0.00;0.62;0.00;0.00;0.62;5.07;2.63;;;23.50;31.00;;;;;;2234245;62;20446;-63
2022/08/29 05:57:16;0.00;0.00;0.62;0.00;0.00;0.62;6.10;3.00;;;23.50;30.90;;;;;;2233716;62;20408;-63
2022/08/29 06:00:03;0.00;0.00;0.62;0.00;0.00;0.62;5.30;2.80;;;23.50;31.10;;;;;;2233975;62;20397;-62
2022/08/29 06:02:57;0.00;0.00;0.62;0.00;0.00;0.62;10.70;3.10;;;23.50;31.20;;;;;;2233869;62;20795;-64
2022/08/29 06:05:42;0.00;0.00;0.62;0.00;0.00;0.62;4.93;2.90;;;23.50;31.30;;;;;;2233186;62;20384;-64
2022/08/29 06:08:28;0.00;0.00;0.62;0.00;0.00;0.62;8.03;3.17;;;23.50;31.40;;;;;;2234082;62;20395;-62
2022/08/29 06:11:15;0.00;0.00;0.62;0.00;0.00;0.62;4.40;2.60;;;23.50;31.60;;;;;;2234063;62;20580;-63
2022/08/29 06:14:00;0.00;0.00;0.62;0.00;0.00;0.62;5.47;3.33;;;23.50;31.60;;;;;;2239021;62;20437;-63
2022/08/29 06:16:46;0.00;0.00;0.62;0.00;0.00;0.62;5.00;3.17;;;23.50;31.60;;;;;;2242098;62;20378;-63
2022/08/29 06:19:33;0.00;0.00;0.62;0.00;0.00;0.62;3.90;2.23;;;23.50;31.60;;;;;;2241259;62;20367;-63
2022/08/29 06:22:18;0.00;0.00;0.62;0.00;0.00;0.62;6.10;3.40;;;23.50;31.70;;;;;;2241746;62;20366;-63
2022/08/29 06:25:06;0.00;0.00;0.62;0.00;0.00;0.62;5.47;3.07;;;23.50;31.70;;;;;;2233589;62;20417;-63
2022/08/29 06:27:53;0.00;0.00;0.62;0.00;0.00;0.62;4.50;2.90;;;23.50;31.80;;;;;;2232881;62;20436;-67
2022/08/29 06:30:38;0.00;0.00;0.62;0.00;0.00;0.62;6.10;3.43;;;23.50;32.50;;;;;;2235879;62;20403;-67
2022/08/29 06:33:23;0.00;0.00;0.62;0.00;0.00;0.62;3.87;2.80;;;23.50;31.90;;;;;;2237760;62;20403;-62
2022/08/29 06:36:09;0.00;0.00;0.62;0.00;0.00;0.62;4.67;3.53;;;23.60;32.10;;;;;;2236864;62;20663;-66
2022/08/29 06:38:55;0.00;0.00;0.62;0.00;0.00;0.62;6.17;3.17;;;23.60;32.00;;;;;;2237613;62;20403;-63
2022/08/29 06:41:42;0.00;0.00;0.62;0.00;0.00;0.62;3.77;2.53;;;23.60;32.20;;;;;;2237772;62;20414;-63
2022/08/29 06:44:29;0.00;0.00;0.62;0.00;0.00;0.62;6.43;2.70;;;23.60;32.30;;;;;;2237112;62;20410;-63
2022/08/29 06:47:14;0.00;0.00;0.62;0.00;0.00;0.62;4.93;2.67;;;23.60;32.30;;;;;;2236018;62;20392;-66
2022/08/29 06:49:59;0.00;0.00;0.62;0.00;0.00;0.62;4.63;2.50;;;23.60;32.30;;;;;;2233277;62;20453;-64
2022/08/29 06:52:44;0.00;0.00;0.62;0.00;0.00;0.62;7.10;3.43;;;23.60;33.20;;;;;;2234555;62;20379;-63
2022/08/29 06:55:29;0.00;0.00;0.62;0.00;0.00;0.62;5.13;2.90;;;23.70;32.80;;;;;;2237905;62;20708;-62
2022/08/29 06:58:15;0.00;0.00;0.62;0.00;0.00;0.62;8.30;4.43;;;23.70;32.60;;;;;;2236523;62;20568;-64
2022/08/29 07:01:05;0.00;0.00;0.62;0.00;0.00;0.62;6.80;2.70;;;23.70;32.60;;;;;;2237355;62;20363;-64
2022/08/29 07:03:53;0.00;0.00;0.62;0.00;0.00;0.62;3.87;2.97;;;23.70;32.60;;;;;;2234669;62;20392;-64
2022/08/29 07:06:39;0.00;0.00;0.62;0.00;0.00;0.62;4.57;3.20;;;23.80;32.90;;;;;;2233756;62;20372;-64
2022/08/29 07:09:24;0.00;0.00;0.62;0.00;0.00;0.62;4.73;2.83;;;23.70;32.60;;;;;;2233976;62;20709;-63
2022/08/29 07:12:10;0.00;0.00;0.62;0.00;0.00;0.62;4.47;3.00;;;23.80;32.70;;;;;;2233163;62;20436;-64
2022/08/29 07:14:56;0.00;0.00;0.62;0.00;0.00;0.62;5.37;2.53;;;23.80;32.70;;;;;;2534882;46;20399;-64
2022/08/29 07:17:41;0.00;0.00;0.62;0.00;0.00;0.62;5.43;3.67;;;23.80;32.60;;;;;;2233534;62;20397;-65
2022/08/29 07:20:26;0.00;0.00;0.62;0.00;0.00;0.62;6.27;3.17;;;23.90;32.80;;;;;;2236264;48;20397;-65
2022/08/29 07:23:12;0.00;0.00;0.62;0.00;0.00;0.62;7.13;3.63;;;23.90;32.90;;;;;;2249097;61;20404;-64
2022/08/29 07:26:07;0.00;0.00;0.62;0.00;0.00;0.62;4.90;3.13;;;23.90;32.90;;;;;;2245436;61;20397;-63
2022/08/29 07:28:57;0.00;0.00;0.62;0.00;0.00;0.62;7.00;3.57;;;23.90;33.00;;;;;;2245195;61;20389;-65
2022/08/29 07:31:44;0.00;0.00;0.62;0.00;0.00;0.62;11.10;3.83;;;23.90;32.90;;;;;;2246423;61;20441;-65
2022/08/29 07:34:29;0.00;0.00;0.62;0.00;0.00;0.62;7.17;3.33;;;24.00;33.00;;;;;;2245801;61;20444;-62
2022/08/29 07:37:14;0.00;0.00;0.62;0.00;0.00;0.62;6.60;3.47;;;24.00;33.00;;;;;;2246218;61;20402;-62
2022/08/29 07:39:58;0.00;0.00;0.62;0.00;0.00;0.62;6.80;3.40;;;24.00;33.10;;;;;;2246366;61;20628;-63
2022/08/29 07:42:43;0.00;0.00;0.62;0.00;0.00;0.62;7.43;3.63;;;24.00;33.30;;;;;;2245484;61;20418;-63
2022/08/29 07:45:28;0.00;0.00;0.62;0.00;0.00;0.62;7.23;3.60;;;24.00;33.40;;;;;;2245918;61;20381;-64
2022/08/29 07:48:15;0.00;0.00;0.62;0.00;0.00;0.62;5.07;3.57;;;24.00;33.50;;;;;;2242723;62;20382;-62
2022/08/29 07:51:00;0.00;0.00;0.62;0.00;0.00;0.62;4.97;3.43;;;24.00;34.30;;;;;;2244294;61;20710;-63
2022/08/29 07:53:45;0.00;0.00;0.62;0.00;0.00;0.62;6.57;3.77;;;24.00;33.80;;;;;;2242241;62;20390;-62
2022/08/29 07:56:37;0.00;0.00;0.62;0.00;0.00;0.62;6.50;3.63;;;24.00;33.90;;;;;;2241721;62;20633;-63
2022/08/29 07:59:22;0.00;0.00;0.62;0.00;0.00;0.62;5.77;2.93;;;24.00;34.10;;;;;;2242134;62;20714;-67
2022/08/29 08:02:07;0.00;0.00;0.62;0.00;0.00;0.62;3.80;3.00;;;24.00;34.20;;;;;;2242383;62;20495;-63
2022/08/29 08:04:53;0.00;0.00;0.62;0.00;0.00;0.62;5.53;3.37;;;24.00;34.30;;;;;;2241388;62;20762;-63
2022/08/29 08:07:38;0.00;0.00;0.62;0.00;0.00;0.62;4.80;3.63;;;24.00;34.30;;;;;;2242298;62;20386;-64
2022/08/29 08:10:23;0.00;0.00;0.62;0.00;0.00;0.62;6.40;3.27;;;24.00;34.30;;;;;;2242035;62;20378;-63
2022/08/29 08:13:09;0.00;0.00;0.62;0.00;0.00;0.62;5.10;3.97;;;24.00;34.40;;;;;;2241709;62;20366;-63
2022/08/29 08:15:54;0.00;0.00;0.62;0.00;0.00;0.62;6.87;4.30;;;24.00;34.40;;;;;;2242333;62;20378;-64
2022/08/29 08:18:41;0.00;0.00;0.62;0.00;0.00;0.62;4.77;3.43;;;24.10;34.60;;;;;;2241709;62;20426;-64
2022/08/29 08:21:28;0.00;0.00;0.62;0.00;0.00;0.62;10.23;4.43;;;24.10;34.80;;;;;;2241932;61;20378;-62
2022/08/29 08:24:12;0.00;0.00;0.62;0.00;0.00;0.62;6.47;3.73;;;24.10;35.10;;;;;;2242207;62;20389;-62
2022/08/29 08:26:57;0.00;0.00;0.62;0.00;0.00;0.62;5.00;3.90;;;24.10;35.10;;;;;;2241583;62;20362;-63
2022/08/29 08:29:43;0.00;0.00;0.62;0.00;0.00;0.62;4.77;3.20;;;24.10;35.20;;;;;;2242354;62;20406;-62
2022/08/29 08:32:28;0.00;0.00;0.62;0.00;0.00;0.62;5.30;3.53;;;24.00;35.10;;;;;;2242116;62;20370;-62
2022/08/29 08:35:14;0.00;0.00;0.62;0.00;0.00;0.62;6.00;4.07;;;24.10;35.10;;;;;;2241488;62;20462;-63
2022/08/29 08:38:01;0.00;0.00;0.62;0.00;0.00;0.62;5.17;3.30;;;24.10;35.20;;;;;;2242294;62;20467;-63
2022/08/29 08:40:57;0.00;0.00;0.62;0.00;0.00;0.62;8.93;4.03;;;24.10;35.30;;;;;;2241528;62;20442;-64
2022/08/29 08:43:47;0.00;0.00;0.62;0.00;0.00;0.62;7.07;3.83;;;24.10;35.30;;;;;;2241625;62;20390;-64
2022/08/29 08:46:38;0.00;0.00;0.62;0.00;0.00;0.62;8.10;4.70;;;24.10;35.50;;;;;;2241455;62;20775;-63
2022/08/29 08:49:34;0.00;0.00;0.62;0.00;0.00;0.62;5.43;3.37;;;24.10;35.60;;;;;;2237330;62;20364;-62
2022/08/29 08:52:24;0.00;0.00;0.62;0.00;0.00;0.62;5.53;3.77;;;24.10;35.60;;;;;;2238188;62;20395;-63
2022/08/29 08:55:23;0.00;0.00;0.62;0.00;0.00;0.62;6.97;3.80;;;24.10;35.60;;;;;;2240205;62;20395;-65
2022/08/29 08:58:31;0.00;0.00;0.62;0.00;0.00;0.62;7.70;4.23;;;24.20;35.60;;;;;;2237639;62;20453;-64
2022/08/29 09:01:23;0.00;0.00;0.62;0.00;0.00;0.62;6.07;3.63;;;24.20;35.60;;;;;;2238014;62;20374;-65
2022/08/29 09:04:25;0.00;0.00;0.62;0.00;0.00;0.62;5.97;3.90;;;24.20;35.70;;;;;;2236607;62;20415;-64
2022/08/29 09:07:30;0.00;0.00;0.62;0.00;0.00;0.62;7.20;3.80;;;24.20;35.70;;;;;;2238133;62;20347;-62
2022/08/29 09:10:31;0.00;0.00;0.62;0.00;0.00;0.62;8.60;4.67;;;24.20;35.80;;;;;;2237701;62;20379;-61
2022/08/29 09:13:28;0.00;0.00;0.62;0.00;0.00;0.62;6.97;3.67;;;24.20;35.80;;;;;;2237434;62;20583;-64
2022/08/29 09:16:22;0.00;0.00;0.62;0.00;0.00;0.62;6.30;4.07;;;24.20;35.70;;;;;;2237847;62;20367;-64
2022/08/29 09:19:10;0.00;0.00;0.62;0.00;0.00;0.62;6.90;4.00;;;24.30;35.90;;;;;;2239468;62;20384;-63
2022/08/29 09:22:06;0.00;0.00;0.62;0.00;0.00;0.62;7.47;4.10;;;24.30;35.90;;;;;;2237867;62;20383;-64
2022/08/29 09:24:57;0.00;0.00;0.62;0.00;0.00;0.62;5.60;4.17;;;24.40;36.00;;;;;;2237420;62;20383;-62
2022/08/29 09:27:44;0.00;0.00;0.62;0.00;0.00;0.62;6.70;4.53;;;24.40;36.10;;;;;;2237162;62;20444;-62
2022/08/29 09:30:35;0.00;0.00;0.62;0.00;0.00;0.62;6.77;4.57;;;24.40;35.90;;;;;;2238004;61;20354;-62
2022/08/29 09:33:20;0.00;0.00;0.62;0.00;0.00;0.62;7.80;5.63;;;24.50;36.00;;;;;;2245610;61;20586;-61
2022/08/29 09:36:05;0.00;0.00;0.62;0.00;0.00;0.62;7.03;4.93;;;24.50;36.20;;;;;;2245851;61;20366;-62
2022/08/29 09:38:50;0.00;0.00;0.62;0.00;0.00;0.62;10.33;5.27;;;24.60;36.20;;;;;;2246047;61;20413;-62
2022/08/29 09:41:35;0.00;0.00;0.62;0.00;0.00;0.62;9.13;5.30;;;24.60;36.20;;;;;;2245539;61;20485;-62
2022/08/29 09:44:27;0.00;0.00;0.62;0.00;0.00;0.62;8.87;5.70;;;24.70;36.30;;;;;;2245568;61;20414;-62
2022/08/29 09:47:18;0.00;0.00;0.62;0.00;0.00;0.62;6.77;4.60;;;24.70;36.30;;;;;;2243867;61;20374;-61
2022/08/29 09:50:10;0.00;0.00;0.62;0.00;0.00;0.62;6.40;4.93;;;24.70;36.20;;;;;;2241674;62;20742;-61
2022/08/29 09:52:58;0.00;0.00;0.62;0.00;0.00;0.62;8.00;5.20;;;24.70;36.10;;;;;;2241861;62;20437;-61
2022/08/29 09:55:44;0.00;0.00;0.62;0.00;0.00;0.62;8.00;5.63;;;24.80;36.40;;;;;;2241712;62;20426;-61
2022/08/29 09:58:35;0.00;0.00;0.62;0.00;0.00;0.62;7.60;4.90;;;24.80;36.40;;;;;;2241692;62;20471;-63
2022/08/29 10:01:21;0.00;0.00;0.62;0.00;0.00;0.62;10.47;5.17;;;24.80;36.30;;;;;;2241458;62;20402;-62
2022/08/29 10:04:07;0.00;0.00;0.62;0.00;0.00;0.62;7.10;4.50;;;24.90;36.40;;;;;;2241588;62;20737;-63
2022/08/29 10:07:06;0.00;0.00;0.62;0.00;0.00;0.62;8.17;5.13;;;24.90;36.40;;;;;;2241793;62;20370;-63
2022/08/29 10:10:15;0.00;0.00;0.62;0.00;0.00;0.62;9.17;4.97;;;24.90;36.30;;;;;;2241723;62;20406;-63
2022/08/29 10:13:07;0.00;0.00;0.62;0.00;0.00;0.62;5.93;4.43;;;25.00;36.20;;;;;;2243755;61;20390;-61
2022/08/29 10:16:00;0.00;0.00;0.62;0.00;0.00;0.62;7.47;4.47;;;25.10;36.30;;;;;;2241057;62;20422;-65
2022/08/29 10:18:50;0.00;0.00;0.62;0.00;0.00;0.62;7.60;4.40;;;25.10;36.30;;;;;;2264875;61;20374;-61
2022/08/29 10:21:45;0.00;0.00;0.62;0.00;0.00;0.62;5.80;4.77;;;25.10;36.30;;;;;;2245675;61;20741;-64
2022/08/29 10:24:48;0.00;0.00;0.62;0.00;0.00;0.62;5.33;4.30;;;25.20;36.30;;;;;;2241928;62;20401;-65
2022/08/29 10:27:42;0.00;0.00;0.62;0.00;0.00;0.62;8.70;5.00;;;25.20;36.20;;;;;;2241388;62;20638;-61
2022/08/29 10:30:36;0.00;0.00;0.62;0.00;0.00;0.62;7.17;4.43;;;25.30;36.30;;;;;;2241895;62;20371;-62
2022/08/29 10:33:39;0.00;0.00;0.62;0.00;0.00;0.62;8.60;6.20;;;25.30;36.20;;;;;;2241180;62;20726;-60
2022/08/29 10:36:31;0.00;0.00;0.62;0.00;0.00;0.62;5.27;4.40;;;25.40;36.30;;;;;;2241617;62;20401;-62
2022/08/29 10:39:28;0.00;0.00;0.62;0.00;0.00;0.62;6.17;4.87;;;25.40;36.10;;;;;;2241668;62;20351;-60
2022/08/29 10:42:18;0.00;0.00;0.62;0.00;0.00;0.62;8.60;6.10;;;25.40;36.20;;;;;;2241004;62;20452;-60
2022/08/29 10:45:13;0.00;0.00;0.62;0.00;0.00;0.62;9.00;5.17;;;25.50;36.40;;;;;;2241520;62;20467;-60
2022/08/29 10:48:09;0.00;0.00;0.62;0.00;0.00;0.62;7.40;5.37;;;25.50;36.30;;;;;;2241249;62;20414;-62
2022/08/29 10:51:13;0.00;0.00;0.62;0.00;0.00;0.62;6.97;4.70;;;25.60;36.50;;;;;;2241747;62;20358;-63
2022/08/29 10:54:10;0.00;0.00;0.62;0.00;0.00;0.62;12.70;5.87;;;25.60;36.30;;;;;;2244440;61;20792;-63
2022/08/29 10:56:56;0.00;0.00;0.62;0.00;0.00;0.62;5.67;4.80;;;25.70;36.30;;;;;;2245201;61;20539;-60
2022/08/29 10:59:54;0.00;0.00;0.62;0.00;0.00;0.62;6.37;4.80;;;25.70;36.20;;;;;;2245872;61;20615;-60
2022/08/29 11:02:47;0.00;0.00;0.62;0.00;0.00;0.62;6.47;4.60;;;25.70;36.20;;;;;;2244382;61;20370;-60
2022/08/29 11:05:40;0.00;0.00;0.62;0.00;0.00;0.62;6.30;5.37;;;25.80;36.20;;;;;;2241624;62;20575;-60